Time;durP1;ratioP1;P1;durP2;ratioP2;P2;SDS_P1;SDS_P2;PMS_P1;PMS_P2;Temp;Humidity;BMP_temperature;BMP_pressure;BME280_temperature;BME280_humidity;BME280_pressure;Samples;Min_cycle;Max_cycle;Signal;HPM_P1;HPM_P2
2021/12/13 00:01:04;;;;;;;;;;;5.10;99.90;;;;;;4986704;28;19918;-83
2021/12/13 00:03:44;;;;;;;;;;;5.10;99.90;;;;;;4969884;28;19960;-83
2021/12/13 00:06:12;;;;;;;;;;;5.10;99.90;;;;;;4985915;28;19941;-83
2021/12/13 00:08:40;;;;;;;;;;;5.10;99.90;;;;;;4969924;28;19925;-83
2021/12/13 00:11:08;;;;;;;;;;;5.10;99.90;;;;;;4987023;28;19920;-82
2021/12/13 00:13:41;;;;;;;;;;;5.10;99.90;;;;;;4977098;28;20066;-82
2021/12/13 00:16:08;;;;;;;;;;;5.10;99.90;;;;;;4969726;28;19922;-83
2021/12/13 00:18:36;;;;;;;;;;;5.10;99.90;;;;;;4974516;28;19918;-83
2021/12/13 00:21:07;;;;;;;;;;;5.20;99.90;;;;;;4986033;28;19914;-83
2021/12/13 00:23:44;;;;;;;;;;;5.20;99.90;;;;;;4969019;28;20393;-82
2021/12/13 00:26:10;;;;;;;;;;;5.20;99.90;;;;;;4974695;28;19917;-84
2021/12/13 00:28:39;;;;;;;;;;;5.20;99.90;;;;;;4950514;28;19941;-83
2021/12/13 00:31:20;;;;;;;;;;;5.20;99.90;;;;;;4970539;28;19925;-83
2021/12/13 00:33:55;;;;;;;;;;;5.20;99.90;;;;;;4987101;28;20373;-81
2021/12/13 00:36:35;;;;;;;;;;;5.20;99.90;;;;;;4960346;28;20433;-81
2021/12/13 00:39:19;;;;;;;;;;;5.30;99.90;;;;;;4985772;28;20414;-80
2021/12/13 00:41:46;;;;;;;;;;;5.30;99.90;;;;;;4985360;28;19934;-81
2021/12/13 00:44:32;;;;;;;;;;;5.30;99.90;;;;;;4984191;28;19914;-81
2021/12/13 00:47:00;;;;;;;;;;;5.30;99.90;;;;;;4965479;28;19933;-82
2021/12/13 00:49:27;;;;;;;;;;;5.30;99.90;;;;;;4958024;28;19918;-81
2021/12/13 00:51:56;;;;;;;;;;;5.30;99.90;;;;;;4983215;28;19914;-82
2021/12/13 00:54:24;;;;;;;;;;;5.30;99.90;;;;;;4984066;28;19924;-81
2021/12/13 00:56:59;;;;;;;;;;;5.30;99.90;;;;;;4960991;28;20344;-82
2021/12/13 00:59:28;;;;;;;;;;;5.30;99.90;;;;;;4965523;28;20378;-80
2021/12/13 01:02:02;;;;;;;;;;;5.30;99.90;;;;;;4959540;28;20289;-81
2021/12/13 01:04:51;;;;;;;;;;;5.30;99.90;;;;;;4965999;28;19917;-81
2021/12/13 01:07:36;;;;;;;;;;;5.30;99.90;;;;;;4984193;28;20021;-82
2021/12/13 01:10:17;;;;;;;;;;;5.30;99.90;;;;;;4968233;28;19917;-82
2021/12/13 01:12:44;;;;;;;;;;;5.30;99.90;;;;;;4968408;28;19918;-82
2021/12/13 01:15:25;;;;;;;;;;;5.30;99.90;;;;;;4985251;28;20012;-82
2021/12/13 01:18:02;;;;;;;;;;;5.30;99.90;;;;;;4973274;28;19914;-82
2021/12/13 01:20:41;;;;;;;;;;;5.30;99.90;;;;;;4987468;28;20424;-82
2021/12/13 01:23:13;;;;;;;;;;;5.30;99.90;;;;;;4971644;28;19918;-82
2021/12/13 01:26:01;;;;;;;;;;;5.30;99.90;;;;;;4984585;28;19925;-83
2021/12/13 01:28:29;;;;;;;;;;;5.30;99.90;;;;;;4988460;28;20297;-82
2021/12/13 01:31:05;;;;;;;;;;;5.30;99.90;;;;;;4972815;28;19920;-82
2021/12/13 01:33:31;;;;;;;;;;;5.30;99.90;;;;;;4972127;28;19934;-81
2021/12/13 01:36:00;;;;;;;;;;;5.30;99.90;;;;;;4975272;28;19921;-82
2021/12/13 01:38:33;;;;;;;;;;;5.30;99.90;;;;;;4971197;28;19917;-82
2021/12/13 01:41:09;;;;;;;;;;;5.30;99.90;;;;;;4987497;28;20004;-82
2021/12/13 01:43:35;;;;;;;;;;;5.30;99.90;;;;;;4988220;28;19921;-81
2021/12/13 01:46:01;;;;;;;;;;;5.30;99.90;;;;;;4961243;28;19918;-82
2021/12/13 01:48:33;;;;;;;;;;;5.30;99.90;;;;;;4976900;28;20383;-83
2021/12/13 01:51:08;;;;;;;;;;;5.30;99.90;;;;;;4978452;28;20384;-83
2021/12/13 01:53:37;;;;;;;;;;;5.30;99.90;;;;;;4971194;28;20012;-82
2021/12/13 01:56:11;;;;;;;;;;;5.30;99.90;;;;;;4977412;28;19989;-82
2021/12/13 01:58:43;;;;;;;;;;;5.30;99.90;;;;;;4987520;28;19918;-82
2021/12/13 02:01:16;;;;;;;;;;;5.20;99.90;;;;;;4967322;28;19921;-82
2021/12/13 02:03:45;;;;;;;;;;;5.30;99.90;;;;;;4983339;28;20462;-83
2021/12/13 02:06:13;;;;;;;;;;;5.30;99.90;;;;;;4965600;28;19954;-81
2021/12/13 02:08:44;;;;;;;;;;;5.30;99.90;;;;;;4988730;28;19941;-82
2021/12/13 02:11:09;;;;;;;;;;;5.30;99.90;;;;;;4967103;28;19926;-82
2021/12/13 02:13:42;;;;;;;;;;;5.30;99.90;;;;;;4970130;28;19938;-83
2021/12/13 02:18:54;;;;;;;;;;;5.30;99.90;;;;;;4990314;28;20045;-82
2021/12/13 02:21:28;;;;;;;;;;;5.20;99.90;;;;;;4971850;28;19920;-82
2021/12/13 02:24:00;;;;;;;;;;;5.20;99.90;;;;;;4973128;28;19944;-81
2021/12/13 02:26:27;;;;;;;;;;;5.30;99.90;;;;;;4973117;28;19929;-82
2021/12/13 02:29:04;;;;;;;;;;;5.30;99.90;;;;;;4991004;28;19914;-82
2021/12/13 02:31:32;;;;;;;;;;;5.30;99.90;;;;;;4986963;28;19940;-82
2021/12/13 02:34:00;;;;;;;;;;;5.30;99.90;;;;;;4990296;28;20008;-82
2021/12/13 02:36:46;;;;;;;;;;;5.20;99.90;;;;;;4979733;28;19926;-82
2021/12/13 02:39:14;;;;;;;;;;;5.20;99.90;;;;;;4972111;28;19918;-83
2021/12/13 02:41:40;;;;;;;;;;;5.20;99.90;;;;;;4973455;28;19914;-83
2021/12/13 02:44:11;;;;;;;;;;;5.20;99.90;;;;;;4975421;28;19914;-84
2021/12/13 02:46:37;;;;;;;;;;;5.20;99.90;;;;;;4972108;28;19918;-83
2021/12/13 02:49:05;;;;;;;;;;;5.20;99.90;;;;;;4972010;28;20424;-82
2021/12/13 02:51:36;;;;;;;;;;;5.20;99.90;;;;;;4987083;28;20328;-82
2021/12/13 02:54:14;;;;;;;;;;;5.20;99.90;;;;;;4971447;28;19921;-82
2021/12/13 02:56:42;;;;;;;;;;;5.20;99.90;;;;;;4983871;28;19956;-81
2021/12/13 02:59:08;;;;;;;;;;;5.20;99.90;;;;;;4991688;28;19918;-82
2021/12/13 03:01:42;;;;;;;;;;;5.20;99.90;;;;;;4975051;28;19924;-82
2021/12/13 03:04:09;;;;;;;;;;;5.20;99.90;;;;;;4971138;28;20000;-82
2021/12/13 03:06:37;;;;;;;;;;;5.20;99.90;;;;;;4974971;28;19945;-82
2021/12/13 03:09:07;;;;;;;;;;;5.20;99.90;;;;;;4990411;28;19918;-82
2021/12/13 03:11:35;;;;;;;;;;;5.20;99.90;;;;;;4970411;28;19918;-83
2021/12/13 03:14:04;;;;;;;;;;;5.20;99.90;;;;;;4977533;28;19948;-83
2021/12/13 03:16:32;;;;;;;;;;;5.10;99.90;;;;;;4967983;28;19914;-82
2021/12/13 03:19:02;;;;;;;;;;;5.20;99.90;;;;;;4961832;28;19918;-82
2021/12/13 03:21:46;;;;;;;;;;;5.10;99.90;;;;;;4972516;28;19914;-82
2021/12/13 03:24:35;;;;;;;;;;;5.10;99.90;;;;;;4970780;28;20376;-81
2021/12/13 03:27:01;;;;;;;;;;;5.20;99.90;;;;;;4946836;28;19926;-82
2021/12/13 03:29:41;;;;;;;;;;;5.20;99.90;;;;;;4963116;28;20354;-81
2021/12/13 03:32:09;;;;;;;;;;;5.10;99.90;;;;;;4969884;28;19914;-82
2021/12/13 03:34:40;;;;;;;;;;;5.10;99.90;;;;;;4991089;28;19976;-82
2021/12/13 03:37:10;;;;;;;;;;;5.10;99.90;;;;;;4990315;28;19914;-83
2021/12/13 03:39:40;;;;;;;;;;;5.10;99.90;;;;;;4973744;28;19996;-82
2021/12/13 03:42:08;;;;;;;;;;;5.20;99.90;;;;;;4989467;28;19921;-81
2021/12/13 03:44:46;;;;;;;;;;;5.20;99.90;;;;;;4990308;28;19928;-82
2021/12/13 03:47:14;;;;;;;;;;;5.10;99.90;;;;;;4986121;28;19926;-81
2021/12/13 03:49:41;;;;;;;;;;;5.20;99.90;;;;;;4989703;28;19979;-82
2021/12/13 03:52:09;;;;;;;;;;;5.20;99.90;;;;;;4989787;28;20309;-82
2021/12/13 03:54:36;;;;;;;;;;;5.10;99.90;;;;;;4974067;28;19915;-82
2021/12/13 03:57:02;;;;;;;;;;;5.10;99.90;;;;;;4979793;28;19914;-81
2021/12/13 03:59:28;;;;;;;;;;;5.10;99.90;;;;;;4989429;28;19922;-82
2021/12/13 04:02:02;;;;;;;;;;;5.20;99.90;;;;;;4989714;28;19984;-81
2021/12/13 04:04:30;;;;;;;;;;;5.20;99.90;;;;;;4990448;28;19914;-81
2021/12/13 04:06:57;;;;;;;;;;;5.10;99.90;;;;;;4988557;28;19929;-83
2021/12/13 04:09:24;;;;;;;;;;;5.20;99.90;;;;;;4988551;28;19929;-83
2021/12/13 04:11:52;;;;;;;;;;;5.20;99.90;;;;;;4974490;28;19991;-83
2021/12/13 04:14:24;;;;;;;;;;;5.10;99.90;;;;;;4971483;28;19918;-84
2021/12/13 04:17:20;;;;;;;;;;;5.20;99.90;;;;;;4971237;28;19925;-83
2021/12/13 04:19:48;;;;;;;;;;;5.20;99.90;;;;;;4963512;28;19914;-83
2021/12/13 04:22:16;;;;;;;;;;;5.20;99.90;;;;;;4969975;28;19914;-82
2021/12/13 04:24:43;;;;;;;;;;;5.20;99.90;;;;;;4968780;28;19918;-82
2021/12/13 04:27:18;;;;;;;;;;;5.10;99.90;;;;;;4962473;28;19926;-82
2021/12/13 04:29:44;;;;;;;;;;;5.20;99.90;;;;;;4970169;28;19997;-82
2021/12/13 04:32:14;;;;;;;;;;;5.20;99.90;;;;;;4981560;28;20321;-82
2021/12/13 04:34:42;;;;;;;;;;;5.20;99.90;;;;;;4971899;28;20378;-81
2021/12/13 04:37:10;;;;;;;;;;;5.20;99.90;;;;;;4944662;28;19919;-81
2021/12/13 04:39:36;;;;;;;;;;;5.20;99.90;;;;;;4953644;28;20204;-82
2021/12/13 04:42:07;;;;;;;;;;;5.20;99.90;;;;;;4951360;28;19968;-82
2021/12/13 04:44:34;;;;;;;;;;;5.20;99.90;;;;;;4970945;28;20243;-81
2021/12/13 04:47:05;;;;;;;;;;;5.20;99.90;;;;;;4970053;28;19922;-80
2021/12/13 04:49:31;;;;;;;;;;;5.20;99.90;;;;;;4970866;28;20386;-81
2021/12/13 04:52:13;;;;;;;;;;;5.20;99.90;;;;;;4970363;28;20022;-81
2021/12/13 04:54:43;;;;;;;;;;;5.20;99.90;;;;;;4970835;28;19930;-81
2021/12/13 04:57:08;;;;;;;;;;;5.20;99.90;;;;;;4949769;29;19950;-80
2021/12/13 04:59:35;;;;;;;;;;;5.20;99.90;;;;;;4964693;28;19956;-83
2021/12/13 05:02:03;;;;;;;;;;;5.20;99.90;;;;;;4969260;28;19918;-81
2021/12/13 05:04:29;;;;;;;;;;;5.20;99.90;;;;;;4959902;28;19914;-80
2021/12/13 05:06:58;;;;;;;;;;;5.20;99.90;;;;;;4949386;28;20425;-81
2021/12/13 05:09:25;;;;;;;;;;;5.20;99.90;;;;;;4953751;28;20374;-82
2021/12/13 05:11:53;;;;;;;;;;;5.20;99.90;;;;;;4970816;28;20294;-81
2021/12/13 05:14:30;;;;;;;;;;;5.30;99.90;;;;;;4970785;28;19918;-82
2021/12/13 05:16:57;;;;;;;;;;;5.30;99.90;;;;;;4952042;28;20413;-81
2021/12/13 05:19:27;;;;;;;;;;;5.30;99.90;;;;;;4961033;28;19942;-81
2021/12/13 05:21:55;;;;;;;;;;;5.30;99.90;;;;;;4952465;28;20428;-81
2021/12/13 05:24:22;;;;;;;;;;;5.30;99.90;;;;;;4970917;28;19941;-80
2021/12/13 05:26:54;;;;;;;;;;;5.30;99.90;;;;;;4952264;28;19919;-79
2021/12/13 05:29:42;;;;;;;;;;;5.20;99.90;;;;;;4952536;28;19914;-80
2021/12/13 05:32:13;;;;;;;;;;;5.30;99.90;;;;;;4939926;28;19915;-80
2021/12/13 05:35:08;;;;;;;;;;;5.30;99.90;;;;;;4987742;28;20721;-80
2021/12/13 05:37:40;;;;;;;;;;;5.30;99.90;;;;;;4946481;29;19915;-80
2021/12/13 05:40:08;;;;;;;;;;;5.30;99.90;;;;;;4947937;29;19914;-81
2021/12/13 05:42:37;;;;;;;;;;;5.30;99.90;;;;;;4946980;29;19914;-80
2021/12/13 05:45:03;;;;;;;;;;;5.30;99.90;;;;;;4948048;29;20386;-79
2021/12/13 05:47:29;;;;;;;;;;;5.30;99.90;;;;;;4929527;29;19926;-79
2021/12/13 05:49:54;;;;;;;;;;;5.30;99.90;;;;;;4917814;29;19915;-80
2021/12/13 05:52:26;;;;;;;;;;;5.30;99.90;;;;;;4949381;28;19922;-79
2021/12/13 05:54:58;;;;;;;;;;;5.30;99.90;;;;;;4933601;29;19928;-80
2021/12/13 05:57:23;;;;;;;;;;;5.30;99.90;;;;;;4934737;29;20348;-79
2021/12/13 05:59:49;;;;;;;;;;;5.30;99.90;;;;;;4952574;29;20001;-81
2021/12/13 06:02:16;;;;;;;;;;;5.30;99.90;;;;;;4934941;29;20358;-80
2021/12/13 06:04:53;;;;;;;;;;;5.30;99.90;;;;;;4951263;29;20398;-80
2021/12/13 06:07:21;;;;;;;;;;;5.30;99.90;;;;;;4945606;29;19922;-81
2021/12/13 06:09:58;;;;;;;;;;;5.40;99.90;;;;;;4952193;29;19919;-80
2021/12/13 06:12:27;;;;;;;;;;;5.30;99.90;;;;;;4950073;29;19915;-81
2021/12/13 06:14:55;;;;;;;;;;;5.40;99.90;;;;;;4958414;28;19918;-79
2021/12/13 06:17:27;;;;;;;;;;;5.30;99.90;;;;;;4974080;28;20358;-80
2021/12/13 06:20:01;;;;;;;;;;;5.40;99.90;;;;;;4975945;28;19975;-80
2021/12/13 06:22:28;;;;;;;;;;;5.40;99.90;;;;;;4990766;28;19914;-81
2021/12/13 06:24:58;;;;;;;;;;;5.40;99.90;;;;;;4994015;28;20004;-80
2021/12/13 06:27:29;;;;;;;;;;;5.40;99.90;;;;;;4972309;28;20377;-80
2021/12/13 06:30:09;;;;;;;;;;;5.40;99.90;;;;;;4973926;28;19914;-82
2021/12/13 06:32:37;;;;;;;;;;;5.40;99.90;;;;;;4991450;28;19960;-80
2021/12/13 06:35:21;;;;;;;;;;;5.40;99.90;;;;;;4980143;28;19928;-81
2021/12/13 06:37:47;;;;;;;;;;;5.40;99.90;;;;;;4990284;28;20002;-81
2021/12/13 06:40:19;;;;;;;;;;;5.40;99.90;;;;;;4976283;28;20000;-81
2021/12/13 06:42:44;;;;;;;;;;;5.40;99.90;;;;;;4974648;28;23924;-81
2021/12/13 06:45:17;;;;;;;;;;;5.40;99.90;;;;;;4990724;28;19945;-79
2021/12/13 06:47:50;;;;;;;;;;;5.40;99.90;;;;;;4962819;28;21158;-80
2021/12/13 06:50:22;;;;;;;;;;;5.40;99.90;;;;;;4987247;28;19973;-80
2021/12/13 06:52:48;;;;;;;;;;;5.40;99.90;;;;;;4978377;28;20379;-81
2021/12/13 06:55:16;;;;;;;;;;;5.40;99.90;;;;;;4989422;28;19929;-81
2021/12/13 06:57:44;;;;;;;;;;;5.40;99.90;;;;;;4977886;28;19918;-80
2021/12/13 07:00:13;;;;;;;;;;;5.40;99.90;;;;;;4987470;28;19944;-81
2021/12/13 07:02:45;;;;;;;;;;;5.40;99.90;;;;;;4987553;28;19917;-78
2021/12/13 07:05:16;;;;;;;;;;;5.40;99.90;;;;;;4969309;28;19914;-78
2021/12/13 07:07:50;;;;;;;;;;;5.50;99.90;;;;;;4990894;28;19922;-78
2021/12/13 07:10:19;;;;;;;;;;;5.50;99.90;;;;;;4980733;28;19920;-77
2021/12/13 07:12:47;;;;;;;;;;;5.50;99.90;;;;;;4988476;28;19929;-77
2021/12/13 07:15:27;;;;;;;;;;;5.50;99.90;;;;;;4989305;28;20365;-78
2021/12/13 07:18:20;;;;;;;;;;;5.50;99.90;;;;;;4961368;28;19918;-78
2021/12/13 07:20:50;;;;;;;;;;;5.50;99.90;;;;;;4984965;28;20009;-78
2021/12/13 07:23:16;;;;;;;;;;;5.50;99.90;;;;;;4990494;28;20345;-78
2021/12/13 07:25:44;;;;;;;;;;;5.50;99.90;;;;;;4987090;28;19940;-78
2021/12/13 07:28:09;;;;;;;;;;;5.50;99.90;;;;;;4989350;28;19914;-81
2021/12/13 07:30:36;;;;;;;;;;;5.60;99.90;;;;;;4990298;28;20247;-81
2021/12/13 07:33:10;;;;;;;;;;;5.60;99.90;;;;;;4992068;28;20370;-81
2021/12/13 07:35:37;;;;;;;;;;;5.60;99.90;;;;;;4991095;28;20415;-81
2021/12/13 07:38:08;;;;;;;;;;;5.60;99.90;;;;;;4973380;28;19925;-82
2021/12/13 07:40:40;;;;;;;;;;;5.60;99.90;;;;;;4991169;28;20030;-81
2021/12/13 07:43:18;;;;;;;;;;;5.60;99.90;;;;;;4991386;28;20015;-81
2021/12/13 07:45:47;;;;;;;;;;;5.70;99.90;;;;;;4956313;28;19941;-81
2021/12/13 07:48:16;;;;;;;;;;;5.60;99.90;;;;;;4991237;28;19971;-81
2021/12/13 07:50:45;;;;;;;;;;;5.60;99.90;;;;;;4990467;28;19922;-82
2021/12/13 07:53:13;;;;;;;;;;;5.60;99.90;;;;;;4974101;28;19921;-81
2021/12/13 07:55:46;;;;;;;;;;;5.60;99.90;;;;;;4979544;28;20254;-81
2021/12/13 07:58:14;;;;;;;;;;;5.60;99.90;;;;;;4991403;28;20274;-81
2021/12/13 08:00:40;;;;;;;;;;;5.60;99.90;;;;;;4990983;28;19963;-81
2021/12/13 08:03:07;;;;;;;;;;;5.60;99.90;;;;;;4974036;28;19918;-82
2021/12/13 08:05:38;;;;;;;;;;;5.60;99.90;;;;;;4989914;28;20653;-81
2021/12/13 08:08:07;;;;;;;;;;;5.60;99.90;;;;;;4973631;28;20037;-81
2021/12/13 08:10:42;;;;;;;;;;;5.60;99.90;;;;;;4976870;28;19922;-81
2021/12/13 08:13:10;;;;;;;;;;;5.60;99.90;;;;;;4963768;28;19921;-81
2021/12/13 08:15:37;;;;;;;;;;;5.70;99.90;;;;;;4969240;28;19914;-80
2021/12/13 08:18:09;;;;;;;;;;;5.70;99.90;;;;;;4975009;28;19988;-81
2021/12/13 08:20:38;;;;;;;;;;;5.70;99.90;;;;;;4990518;28;19941;-83
2021/12/13 08:23:04;;;;;;;;;;;5.70;99.90;;;;;;4969799;28;19917;-81
2021/12/13 08:25:32;;;;;;;;;;;5.70;99.90;;;;;;4973025;28;19992;-81
2021/12/13 08:28:01;;;;;;;;;;;5.70;99.90;;;;;;4973417;28;19941;-81
2021/12/13 08:30:34;;;;;;;;;;;5.70;99.90;;;;;;4988420;28;20346;-81
2021/12/13 08:33:02;;;;;;;;;;;5.70;99.90;;;;;;4989247;28;19965;-81
2021/12/13 08:35:44;;;;;;;;;;;5.70;99.90;;;;;;4969267;28;19913;-81
2021/12/13 08:38:10;;;;;;;;;;;5.80;99.90;;;;;;4990943;28;19914;-81
2021/12/13 08:40:36;;;;;;;;;;;5.80;99.90;;;;;;4973084;28;19921;-81
2021/12/13 08:43:02;;;;;;;;;;;5.80;99.90;;;;;;4975415;28;19914;-81
2021/12/13 08:45:32;;;;;;;;;;;5.80;99.90;;;;;;4984044;28;19918;-81
2021/12/13 08:48:02;;;;;;;;;;;5.80;99.90;;;;;;4990546;28;19922;-82
2021/12/13 08:50:36;;;;;;;;;;;5.80;99.90;;;;;;4989985;28;19914;-81
2021/12/13 08:53:05;;;;;;;;;;;6.30;99.90;;;;;;4989851;28;20000;-81
2021/12/13 08:55:36;;;;;;;;;;;6.10;99.90;;;;;;4989131;28;19914;-81
2021/12/13 08:58:04;;;;;;;;;;;6.00;99.90;;;;;;4970792;28;20361;-82
2021/12/13 09:00:44;;;;;;;;;;;5.90;99.90;;;;;;4988934;28;19913;-82
2021/12/13 09:03:10;;;;;;;;;;;5.90;99.90;;;;;;4985766;28;19985;-82
2021/12/13 09:05:38;;;;;;;;;;;5.90;99.90;;;;;;4986810;28;19914;-82
2021/12/13 09:08:05;;;;;;;;;;;5.90;99.90;;;;;;4990355;28;19930;-82
2021/12/13 09:10:40;;;;;;;;;;;6.00;99.90;;;;;;4990282;28;19944;-81
2021/12/13 09:13:07;;;;;;;;;;;5.90;99.90;;;;;;4988889;28;20013;-81
2021/12/13 09:15:34;;;;;;;;;;;6.00;99.90;;;;;;4988622;28;19953;-81
2021/12/13 09:18:00;;;;;;;;;;;6.00;99.90;;;;;;4962639;28;19914;-81
2021/12/13 09:20:47;;;;;;;;;;;6.00;99.90;;;;;;4961352;28;19914;-81
2021/12/13 09:23:12;;;;;;;;;;;6.00;99.90;;;;;;4987835;28;19918;-84
2021/12/13 09:25:38;;;;;;;;;;;6.10;99.90;;;;;;4967527;28;20340;-81
2021/12/13 09:28:13;;;;;;;;;;;6.10;99.90;;;;;;4989402;28;20431;-81
2021/12/13 09:30:44;;;;;;;;;;;6.10;99.90;;;;;;4971995;28;19922;-81
2021/12/13 09:33:30;;;;;;;;;;;6.10;99.90;;;;;;4989639;28;20439;-82
2021/12/13 09:36:10;;;;;;;;;;;6.10;99.90;;;;;;4984121;28;19987;-83
2021/12/13 09:38:39;;;;;;;;;;;6.20;99.90;;;;;;4969191;28;19918;-82
2021/12/13 09:41:16;;;;;;;;;;;6.20;99.90;;;;;;4976135;28;19921;-81
2021/12/13 09:44:05;;;;;;;;;;;6.20;99.90;;;;;;4969215;28;19968;-82
2021/12/13 09:46:36;;;;;;;;;;;6.20;99.90;;;;;;4959330;28;19917;-81
2021/12/13 09:49:04;;;;;;;;;;;6.20;99.90;;;;;;4977091;28;20358;-82
2021/12/13 09:51:39;;;;;;;;;;;6.20;99.90;;;;;;4986200;28;20362;-82
2021/12/13 09:54:07;;;;;;;;;;;6.20;99.90;;;;;;4986437;28;19917;-82
2021/12/13 09:56:36;;;;;;;;;;;6.30;99.90;;;;;;4986067;28;19917;-82
2021/12/13 09:59:21;;;;;;;;;;;6.30;99.90;;;;;;4970459;28;20346;-82
2021/12/13 10:01:47;;;;;;;;;;;6.30;99.90;;;;;;4958805;28;19948;-82
2021/12/13 10:04:30;;;;;;;;;;;6.30;99.90;;;;;;4948996;28;19953;-82
2021/12/13 10:07:04;;;;;;;;;;;6.40;99.90;;;;;;4967307;28;19922;-83
2021/12/13 10:09:34;;;;;;;;;;;6.40;99.90;;;;;;4970660;28;19921;-82
2021/12/13 10:12:22;;;;;;;;;;;6.60;99.90;;;;;;4969056;28;19914;-83
2021/12/13 10:14:52;;;;;;;;;;;6.60;99.90;;;;;;4973493;28;19917;-83
2021/12/13 10:17:19;;;;;;;;;;;6.60;99.90;;;;;;4940036;28;19925;-82
2021/12/13 10:19:48;;;;;;;;;;;6.60;99.90;;;;;;4969851;28;19914;-82
2021/12/13 10:22:15;;;;;;;;;;;6.70;99.90;;;;;;4951638;28;19918;-82
2021/12/13 10:24:43;;;;;;;;;;;6.70;99.90;;;;;;4966479;28;19928;-82
2021/12/13 10:27:11;;;;;;;;;;;6.70;99.90;;;;;;4983703;28;19922;-82
2021/12/13 10:29:37;;;;;;;;;;;6.70;99.90;;;;;;4959386;28;19957;-82
2021/12/13 10:32:05;;;;;;;;;;;6.70;99.90;;;;;;4975718;28;20396;-82
2021/12/13 10:34:34;;;;;;;;;;;6.70;99.90;;;;;;4965593;28;19933;-82
2021/12/13 10:37:03;;;;;;;;;;;6.70;99.90;;;;;;4950842;28;19914;-82
2021/12/13 10:39:34;;;;;;;;;;;6.70;99.90;;;;;;4967005;28;20421;-82
2021/12/13 10:42:02;;;;;;;;;;;6.80;99.90;;;;;;4975112;28;19914;-83
2021/12/13 10:44:30;;;;;;;;;;;6.80;99.90;;;;;;4972093;28;20393;-84
2021/12/13 10:47:06;;;;;;;;;;;6.80;99.90;;;;;;4962502;28;19924;-83
2021/12/13 10:49:34;;;;;;;;;;;6.80;99.90;;;;;;4962438;28;19977;-82
2021/12/13 10:52:12;;;;;;;;;;;6.80;99.90;;;;;;4986801;28;20039;-82
2021/12/13 10:54:41;;;;;;;;;;;6.90;99.90;;;;;;4970775;28;19936;-82
2021/12/13 10:57:13;;;;;;;;;;;6.90;99.90;;;;;;4989412;28;19921;-83
2021/12/13 10:59:38;;;;;;;;;;;6.90;99.90;;;;;;4972067;28;19914;-83
2021/12/13 11:02:16;;;;;;;;;;;6.90;99.90;;;;;;4987197;28;19998;-82
2021/12/13 11:04:49;;;;;;;;;;;6.90;99.90;;;;;;4971876;28;20001;-82
2021/12/13 11:07:16;;;;;;;;;;;6.90;99.90;;;;;;4970024;28;20365;-82
2021/12/13 11:09:43;;;;;;;;;;;7.00;99.90;;;;;;4963438;28;19913;-82
2021/12/13 11:12:08;;;;;;;;;;;7.10;99.90;;;;;;4963720;28;19929;-82
2021/12/13 11:14:36;;;;;;;;;;;7.10;99.90;;;;;;4991849;28;19920;-82
2021/12/13 11:17:05;;;;;;;;;;;7.10;99.90;;;;;;4978113;28;19920;-82
2021/12/13 11:19:32;;;;;;;;;;;7.20;99.90;;;;;;4990364;28;19917;-81
2021/12/13 11:22:01;;;;;;;;;;;7.10;99.90;;;;;;4989261;28;20309;-82
2021/12/13 11:24:28;;;;;;;;;;;7.10;99.90;;;;;;4991735;28;19944;-82
2021/12/13 11:26:56;;;;;;;;;;;7.10;99.90;;;;;;4973096;28;19967;-82
2021/12/13 11:29:23;;;;;;;;;;;7.10;99.90;;;;;;4973278;28;19921;-81
2021/12/13 11:32:00;;;;;;;;;;;7.10;99.90;;;;;;4989313;28;19914;-81
2021/12/13 11:34:47;;;;;;;;;;;7.10;99.90;;;;;;4990259;28;19933;-81
2021/12/13 11:37:32;;;;;;;;;;;7.20;99.90;;;;;;4989312;28;19969;-82
2021/12/13 11:40:00;;;;;;;;;;;7.20;99.90;;;;;;4990107;28;19956;-82
2021/12/13 11:42:28;;;;;;;;;;;7.20;99.90;;;;;;4990443;28;19914;-83
2021/12/13 11:45:14;;;;;;;;;;;7.30;99.90;;;;;;4967664;28;20451;-83
2021/12/13 11:47:40;;;;;;;;;;;7.30;99.90;;;;;;4931209;28;20460;-83
2021/12/13 11:50:24;;;;;;;;;;;7.30;99.90;;;;;;4990583;28;20001;-82
2021/12/13 11:53:02;;;;;;;;;;;7.30;99.90;;;;;;4984126;28;19973;-82
2021/12/13 11:55:52;;;;;;;;;;;7.30;99.90;;;;;;4989657;28;19964;-82
2021/12/13 11:58:36;;;;;;;;;;;7.40;99.90;;;;;;4972751;28;19944;-81
2021/12/13 12:01:20;;;;;;;;;;;7.40;99.90;;;;;;4972618;28;20358;-81
2021/12/13 12:03:51;;;;;;;;;;;7.40;99.90;;;;;;4963459;28;19964;-81
2021/12/13 12:06:36;;;;;;;;;;;7.40;99.90;;;;;;4990229;28;20358;-82
2021/12/13 12:09:20;;;;;;;;;;;7.50;99.90;;;;;;4988826;28;19918;-81
2021/12/13 12:11:52;;;;;;;;;;;7.50;99.90;;;;;;4988991;28;19922;-81
2021/12/13 12:14:23;;;;;;;;;;;7.50;99.90;;;;;;4990527;28;19918;-82
2021/12/13 12:16:50;;;;;;;;;;;7.60;99.90;;;;;;4972180;28;19918;-82
2021/12/13 12:19:24;;;;;;;;;;;7.60;99.90;;;;;;4990880;28;19957;-81
2021/12/13 12:22:01;;;;;;;;;;;7.60;99.90;;;;;;4986061;28;19914;-81
2021/12/13 12:24:29;;;;;;;;;;;7.60;99.90;;;;;;4987929;28;19983;-81
2021/12/13 12:27:01;;;;;;;;;;;7.60;99.90;;;;;;4979058;28;19964;-81
2021/12/13 12:29:29;;;;;;;;;;;7.60;99.90;;;;;;4972943;28;19914;-81
2021/12/13 12:32:00;;;;;;;;;;;7.60;99.90;;;;;;4970497;28;19920;-81
2021/12/13 12:34:25;;;;;;;;;;;7.60;99.90;;;;;;4963867;28;19965;-82
2021/12/13 12:36:57;;;;;;;;;;;7.60;99.90;;;;;;4975131;28;20539;-82
2021/12/13 12:39:35;;;;;;;;;;;7.60;99.90;;;;;;4988161;28;20004;-82
2021/12/13 12:42:01;;;;;;;;;;;7.60;99.90;;;;;;4973924;28;20301;-82
2021/12/13 12:44:37;;;;;;;;;;;7.60;99.90;;;;;;4989520;28;19914;-81
2021/12/13 12:47:03;;;;;;;;;;;7.70;99.90;;;;;;4965909;28;20400;-83
2021/12/13 12:49:29;;;;;;;;;;;7.60;99.90;;;;;;4958115;28;19918;-81
2021/12/13 12:52:03;;;;;;;;;;;7.70;99.90;;;;;;4959829;28;19918;-81
2021/12/13 12:54:32;;;;;;;;;;;7.70;99.90;;;;;;4989057;28;19914;-81
2021/12/13 12:57:02;;;;;;;;;;;7.70;99.90;;;;;;4968879;28;19928;-81
2021/12/13 12:59:29;;;;;;;;;;;7.80;99.90;;;;;;4991088;28;19924;-81
2021/12/13 13:02:03;;;;;;;;;;;7.80;99.90;;;;;;4989624;28;19937;-81
2021/12/13 13:04:37;;;;;;;;;;;7.80;99.90;;;;;;4967239;28;19937;-81
2021/12/13 13:07:08;;;;;;;;;;;7.90;99.90;;;;;;4977967;28;20336;-81
2021/12/13 13:09:44;;;;;;;;;;;7.90;99.90;;;;;;4984009;28;20344;-81
2021/12/13 13:12:11;;;;;;;;;;;7.90;99.90;;;;;;4988808;28;20374;-81
2021/12/13 13:14:48;;;;;;;;;;;7.90;99.90;;;;;;4981771;28;19925;-81
2021/12/13 13:17:14;;;;;;;;;;;7.90;99.90;;;;;;4987456;28;20266;-81
2021/12/13 13:19:41;;;;;;;;;;;8.00;99.90;;;;;;4989161;28;20396;-81
2021/12/13 13:22:12;;;;;;;;;;;8.00;99.90;;;;;;4971834;28;20060;-80
2021/12/13 13:24:40;;;;;;;;;;;8.00;99.90;;;;;;4972320;28;20380;-81
2021/12/13 13:27:06;;;;;;;;;;;8.00;99.90;;;;;;4987898;28;20006;-80
2021/12/13 13:29:33;;;;;;;;;;;8.00;99.90;;;;;;4988231;28;20531;-81
2021/12/13 13:32:00;;;;;;;;;;;8.00;99.90;;;;;;4952450;28;19914;-81
2021/12/13 13:34:38;;;;;;;;;;;8.00;99.90;;;;;;4981829;28;20397;-80
2021/12/13 13:37:04;;;;;;;;;;;8.00;99.90;;;;;;4983887;28;20286;-80
2021/12/13 13:39:34;;;;;;;;;;;8.10;99.90;;;;;;4984898;28;20254;-81
2021/12/13 13:42:29;;;;;;;;;;;8.00;99.90;;;;;;4986617;28;20251;-80
2021/12/13 13:44:57;;;;;;;;;;;8.10;99.90;;;;;;4979592;28;19963;-80
2021/12/13 13:47:25;;;;;;;;;;;8.10;99.90;;;;;;4948322;28;20445;-80
2021/12/13 13:49:51;;;;;;;;;;;8.10;99.90;;;;;;4979921;28;19981;-81
2021/12/13 13:52:22;;;;;;;;;;;8.10;99.90;;;;;;4987917;28;20986;-80
2021/12/13 13:54:55;;;;;;;;;;;8.10;99.90;;;;;;4986935;28;19969;-81
2021/12/13 13:57:24;;;;;;;;;;;8.10;99.90;;;;;;4985614;28;20388;-79
2021/12/13 13:59:50;;;;;;;;;;;8.10;99.90;;;;;;4989147;28;19921;-79
2021/12/13 14:02:17;;;;;;;;;;;8.10;99.90;;;;;;4968127;28;19914;-81
2021/12/13 14:04:47;;;;;;;;;;;8.10;99.90;;;;;;4987878;28;19921;-80
2021/12/13 14:07:18;;;;;;;;;;;8.20;99.90;;;;;;4970072;28;20354;-80
2021/12/13 14:09:51;;;;;;;;;;;8.20;99.90;;;;;;4978056;28;19918;-80
2021/12/13 14:12:23;;;;;;;;;;;8.20;99.90;;;;;;4960362;28;19918;-80
2021/12/13 14:14:50;;;;;;;;;;;8.20;99.90;;;;;;4989106;28;20353;-79
2021/12/13 14:17:30;;;;;;;;;;;8.20;99.90;;;;;;4980527;28;19932;-79
2021/12/13 14:19:56;;;;;;;;;;;8.10;99.90;;;;;;4965147;28;19913;-81
2021/12/13 14:22:28;;;;;;;;;;;8.20;99.90;;;;;;4974197;28;20358;-80
2021/12/13 14:24:54;;;;;;;;;;;8.20;99.90;;;;;;4972138;28;19918;-81
2021/12/13 14:27:22;;;;;;;;;;;8.20;99.90;;;;;;4972444;28;19997;-80
2021/12/13 14:29:50;;;;;;;;;;;8.20;99.90;;;;;;4987899;28;19914;-79
2021/12/13 14:32:16;;;;;;;;;;;8.20;99.90;;;;;;4980666;28;19922;-80
2021/12/13 14:34:43;;;;;;;;;;;8.20;99.90;;;;;;4979900;28;20637;-81
2021/12/13 14:37:09;;;;;;;;;;;8.30;99.90;;;;;;4990819;28;20302;-80
2021/12/13 14:39:43;;;;;;;;;;;8.30;99.90;;;;;;4980183;28;20400;-80
2021/12/13 14:42:11;;;;;;;;;;;8.30;99.90;;;;;;4991800;28;20278;-80
2021/12/13 14:44:53;;;;;;;;;;;8.30;99.90;;;;;;4992454;28;19925;-81
2021/12/13 14:47:21;;;;;;;;;;;8.30;99.90;;;;;;4991304;28;19968;-81
2021/12/13 14:49:49;;;;;;;;;;;8.30;99.90;;;;;;4991878;28;19928;-81
2021/12/13 14:52:18;;;;;;;;;;;8.30;99.90;;;;;;4990431;28;19917;-80
2021/12/13 14:54:45;;;;;;;;;;;8.30;99.90;;;;;;4992591;28;19914;-81
2021/12/13 14:57:13;;;;;;;;;;;8.40;99.90;;;;;;4989161;28;19924;-81